createdAt,value
2023-01-23T00:01:27.276Z,11.50
2023-01-23T00:03:54.927Z,11.40
2023-01-23T00:06:22.284Z,11.35
2023-01-23T00:08:48.992Z,11.88
2023-01-23T00:11:22.670Z,11.30
2023-01-23T00:13:49.388Z,10.10
2023-01-23T00:16:21.827Z,9.95
2023-01-23T00:18:49.568Z,11.95
2023-01-23T00:21:18.322Z,11.85
2023-01-23T00:23:46.751Z,10.98
2023-01-23T00:28:43.448Z,11.00
2023-01-23T00:31:13.057Z,11.73
2023-01-23T00:33:40.562Z,12.35
2023-01-23T00:36:07.614Z,13.50
2023-01-23T00:38:34.649Z,11.27
2023-01-23T00:41:02.386Z,12.65
2023-01-23T00:43:29.715Z,12.55
2023-01-23T00:45:56.425Z,13.50
2023-01-23T00:48:23.243Z,15.43
2023-01-23T00:50:50.026Z,13.05
2023-01-23T00:53:16.697Z,11.57
2023-01-23T00:55:43.275Z,13.18
2023-01-23T00:58:10.044Z,12.63
2023-01-23T01:00:37.902Z,12.30
2023-01-23T01:03:05.630Z,12.30
2023-01-23T01:05:32.574Z,14.35
2023-01-23T01:07:59.164Z,14.95
2023-01-23T01:10:29.571Z,12.73
2023-01-23T01:12:57.430Z,14.10
2023-01-23T01:15:24.046Z,15.35
2023-01-23T01:17:50.816Z,12.75
2023-01-23T01:20:17.685Z,12.55
2023-01-23T01:22:44.586Z,11.77
2023-01-23T01:25:11.161Z,13.70
2023-01-23T01:27:37.827Z,12.43
2023-01-23T01:30:04.839Z,11.57
2023-01-23T01:32:31.379Z,13.05
2023-01-23T01:34:57.933Z,11.63
2023-01-23T01:37:25.231Z,13.48
2023-01-23T01:39:51.815Z,12.23
2023-01-23T01:42:18.452Z,13.20
2023-01-23T01:44:58.090Z,14.35
2023-01-23T01:47:24.852Z,13.45
2023-01-23T01:49:53.899Z,12.00
2023-01-23T01:52:21.233Z,13.00
2023-01-23T01:54:56.137Z,12.55
2023-01-23T01:57:26.668Z,12.75
2023-01-23T02:00:06.756Z,13.43
2023-01-23T02:02:37.259Z,15.10
2023-01-23T02:05:09.731Z,12.07
2023-01-23T02:07:54.464Z,12.55
2023-01-23T02:10:22.016Z,13.27
2023-01-23T02:12:51.069Z,12.50
2023-01-23T02:15:20.299Z,12.48
2023-01-23T02:17:48.290Z,13.10
2023-01-23T02:20:21.364Z,12.48
2023-01-23T02:22:57.640Z,12.38
2023-01-23T02:25:45.564Z,12.25
2023-01-23T02:28:13.115Z,11.10
2023-01-23T02:30:42.398Z,13.63
2023-01-23T02:33:12.577Z,11.52
2023-01-23T02:35:39.335Z,10.88
2023-01-23T02:38:06.896Z,11.23
2023-01-23T02:40:36.712Z,10.53
2023-01-23T02:43:05.098Z,11.15
2023-01-23T02:45:31.982Z,9.93
2023-01-23T02:47:58.964Z,12.57
2023-01-23T02:50:25.535Z,10.57
2023-01-23T02:52:54.720Z,10.95
2023-01-23T02:55:22.266Z,11.23
2023-01-23T02:57:48.836Z,10.97
2023-01-23T03:00:22.844Z,11.00
2023-01-23T03:02:50.915Z,11.40
2023-01-23T03:05:18.217Z,11.18
2023-01-23T03:07:44.954Z,11.32
2023-01-23T03:10:12.366Z,11.45
2023-01-23T03:12:42.542Z,10.90
2023-01-23T03:15:10.113Z,10.70
2023-01-23T03:17:36.945Z,10.00
2023-01-23T03:20:06.018Z,10.27
2023-01-23T03:22:32.609Z,9.88
2023-01-23T03:24:59.454Z,10.02
2023-01-23T03:27:26.057Z,10.45
2023-01-23T03:30:11.280Z,9.95
2023-01-23T03:32:38.718Z,10.18
2023-01-23T03:35:06.705Z,11.30
2023-01-23T03:37:33.293Z,10.05
2023-01-23T03:40:18.664Z,9.60
2023-01-23T03:42:45.407Z,10.07
2023-01-23T03:45:11.974Z,9.88
2023-01-23T03:47:38.600Z,9.82
2023-01-23T03:50:06.186Z,9.68
2023-01-23T03:52:32.775Z,9.30
2023-01-23T03:54:59.331Z,9.43
2023-01-23T03:57:25.924Z,9.60
2023-01-23T03:59:52.465Z,9.90
2023-01-23T04:02:19.106Z,9.73
2023-01-23T04:04:45.761Z,9.43
2023-01-23T04:07:12.325Z,9.40
2023-01-23T04:09:38.951Z,10.65
2023-01-23T04:12:05.570Z,10.30
2023-01-23T04:14:37.363Z,10.00
2023-01-23T04:17:05.384Z,8.50
2023-01-23T04:19:32.092Z,9.15
2023-01-23T04:21:58.693Z,11.00
2023-01-23T04:24:25.376Z,10.50
2023-01-23T04:26:52.111Z,10.75
2023-01-23T04:29:18.852Z,10.93
2023-01-23T04:31:45.720Z,11.45
2023-01-23T04:34:12.379Z,9.90
2023-01-23T04:36:38.974Z,9.85
2023-01-23T04:39:05.683Z,10.77
2023-01-23T04:41:33.062Z,10.35
2023-01-23T04:44:20.214Z,9.70
2023-01-23T04:46:49.802Z,10.80
2023-01-23T04:49:18.696Z,9.50
2023-01-23T04:51:48.047Z,9.77
2023-01-23T04:54:15.256Z,10.27
2023-01-23T04:56:42.540Z,10.30
2023-01-23T04:59:09.478Z,9.75
2023-01-23T05:01:36.521Z,10.18
2023-01-23T05:04:03.726Z,10.70
2023-01-23T05:06:30.680Z,10.50
2023-01-23T05:08:57.292Z,11.05
2023-01-23T05:11:24.043Z,11.98
2023-01-23T05:13:50.850Z,10.15
2023-01-23T05:16:17.549Z,12.05
2023-01-23T05:18:44.285Z,12.43
2023-01-23T05:21:10.856Z,12.82
2023-01-23T05:23:37.437Z,14.30
2023-01-23T05:26:04.142Z,13.77
2023-01-23T05:28:30.717Z,12.27
2023-01-23T05:30:57.420Z,12.13
2023-01-23T05:33:24.161Z,14.68
2023-01-23T05:35:50.730Z,13.23
2023-01-23T05:38:17.322Z,12.18
2023-01-23T05:40:44.026Z,11.23
2023-01-23T05:43:14.748Z,12.43
2023-01-23T05:45:41.366Z,11.95
2023-01-23T05:48:08.074Z,11.45
2023-01-23T05:50:34.712Z,11.10
2023-01-23T05:53:01.371Z,11.00
2023-01-23T05:55:27.918Z,11.30
2023-01-23T05:57:54.466Z,12.70
2023-01-23T06:00:21.471Z,13.40
2023-01-23T06:02:48.416Z,14.07
2023-01-23T06:05:15.113Z,14.43
2023-01-23T06:07:41.689Z,15.15
2023-01-23T06:10:10.033Z,13.48
2023-01-23T06:15:03.508Z,13.50
2023-01-23T06:17:30.088Z,14.00
2023-01-23T06:19:56.711Z,12.23
2023-01-23T06:22:23.273Z,15.13
2023-01-23T06:24:49.931Z,13.48
2023-01-23T06:27:16.472Z,14.20
2023-01-23T06:29:43.019Z,12.15
2023-01-23T06:32:09.585Z,12.30
2023-01-23T06:34:36.717Z,14.00
2023-01-23T06:37:03.694Z,13.38
2023-01-23T06:39:30.324Z,13.07
2023-01-23T06:41:57.415Z,12.68
2023-01-23T06:44:24.301Z,13.27
2023-01-23T06:46:53.050Z,13.05
2023-01-23T06:49:19.800Z,14.27
2023-01-23T06:51:46.368Z,12.95
2023-01-23T06:54:12.909Z,13.18
2023-01-23T06:56:39.488Z,12.45
2023-01-23T06:59:06.599Z,13.10
2023-01-23T07:01:33.288Z,12.93
2023-01-23T07:03:59.932Z,13.40
2023-01-23T07:06:26.528Z,12.32
2023-01-23T07:08:53.116Z,12.65
2023-01-23T07:11:19.731Z,12.90
2023-01-23T07:13:46.301Z,13.30
2023-01-23T07:16:12.997Z,12.70
2023-01-23T07:18:39.619Z,12.40
2023-01-23T07:21:07.015Z,13.60
2023-01-23T07:23:34.139Z,14.20
2023-01-23T07:26:03.542Z,15.05
2023-01-23T07:28:30.850Z,13.25
2023-01-23T07:30:59.113Z,14.52
2023-01-23T07:33:25.802Z,15.85
2023-01-23T07:35:52.341Z,14.40
2023-01-23T07:38:19.017Z,13.63
2023-01-23T07:40:45.692Z,12.52
2023-01-23T07:43:13.488Z,13.07
2023-01-23T07:45:40.112Z,12.15
2023-01-23T07:48:06.742Z,12.55
2023-01-23T07:50:33.500Z,12.68
2023-01-23T07:53:00.088Z,12.40
2023-01-23T07:55:26.658Z,12.10
2023-01-23T07:57:53.260Z,10.90
2023-01-23T08:00:22.252Z,11.13
2023-01-23T08:02:50.021Z,11.80
2023-01-23T08:05:16.580Z,11.77
2023-01-23T08:07:43.445Z,12.10
2023-01-23T08:10:11.086Z,10.77
2023-01-23T08:12:37.731Z,11.18
2023-01-23T08:15:04.920Z,11.25
2023-01-23T08:17:31.665Z,12.10
2023-01-23T08:19:58.242Z,11.75
2023-01-23T08:22:24.952Z,11.85
2023-01-23T08:24:51.575Z,13.88
2023-01-23T08:27:18.216Z,12.98
2023-01-23T08:29:44.788Z,11.95
2023-01-23T08:32:11.337Z,11.65
2023-01-23T08:34:38.119Z,12.13
2023-01-23T08:37:04.689Z,11.32
2023-01-23T08:39:31.302Z,13.02
2023-01-23T08:41:58.024Z,12.05
2023-01-23T08:44:24.929Z,11.95
2023-01-23T08:46:51.503Z,13.40
2023-01-23T08:49:20.806Z,12.65
2023-01-23T08:51:47.677Z,14.18
2023-01-23T08:54:14.512Z,12.55
2023-01-23T08:56:41.406Z,12.65
2023-01-23T08:59:09.146Z,13.05
2023-01-23T09:01:36.089Z,12.18
2023-01-23T09:04:02.929Z,13.65
2023-01-23T09:06:29.870Z,12.05
2023-01-23T09:08:57.001Z,12.15
2023-01-23T09:11:24.197Z,11.63
2023-01-23T09:13:53.741Z,12.18
2023-01-23T09:16:20.920Z,11.32
2023-01-23T09:18:47.767Z,11.00
2023-01-23T09:21:16.706Z,10.73
2023-01-23T09:23:44.286Z,11.82
2023-01-23T09:26:13.085Z,11.60
2023-01-23T09:28:42.896Z,11.75
2023-01-23T09:31:13.042Z,11.63
2023-01-23T09:33:41.010Z,12.68
2023-01-23T09:36:08.287Z,11.93
2023-01-23T09:38:35.140Z,11.35
2023-01-23T09:41:09.730Z,12.80
2023-01-23T09:44:02.493Z,13.77
2023-01-23T09:46:35.452Z,12.18
2023-01-23T09:49:19.346Z,13.15
2023-01-23T09:52:06.357Z,12.27
2023-01-23T09:54:47.156Z,12.52
2023-01-23T09:57:15.255Z,13.07
2023-01-23T09:59:58.811Z,13.93
2023-01-23T10:02:27.947Z,12.90
2023-01-23T10:04:56.039Z,14.35
2023-01-23T10:07:25.301Z,13.32
2023-01-23T10:09:54.566Z,14.73
2023-01-23T10:12:42.777Z,13.52
2023-01-23T10:18:00.870Z,13.75
2023-01-23T10:20:55.695Z,14.88
2023-01-23T10:23:40.813Z,15.23
2023-01-23T10:26:22.509Z,15.02
2023-01-23T10:28:51.902Z,15.65
2023-01-23T10:31:18.892Z,16.58
2023-01-23T10:34:00.024Z,16.60
2023-01-23T10:36:47.645Z,15.18
2023-01-23T10:39:26.866Z,13.93
2023-01-23T10:42:02.147Z,14.65
2023-01-23T10:44:29.394Z,15.55
2023-01-23T10:47:01.068Z,15.90
2023-01-23T10:49:30.485Z,14.55
2023-01-23T10:51:57.465Z,16.02
2023-01-23T10:54:33.890Z,15.98
2023-01-23T10:57:20.832Z,16.75
2023-01-23T11:00:01.473Z,15.18
2023-01-23T11:02:33.727Z,16.73
2023-01-23T11:05:01.590Z,16.27
2023-01-23T11:07:32.108Z,15.00
2023-01-23T11:10:02.149Z,15.68
2023-01-23T11:12:34.025Z,15.05
2023-01-23T11:15:29.717Z,16.58
2023-01-23T11:17:57.946Z,14.73
2023-01-23T11:20:33.458Z,15.70
2023-01-23T11:23:06.441Z,14.23
2023-01-23T11:25:37.498Z,14.48
2023-01-23T11:28:27.410Z,13.98
2023-01-23T11:31:14.572Z,14.50
2023-01-23T11:33:57.219Z,14.00
2023-01-23T11:37:01.214Z,13.85
2023-01-23T11:39:52.805Z,15.95
2023-01-23T11:42:19.816Z,14.73
2023-01-23T11:44:47.831Z,14.13
2023-01-23T11:47:42.452Z,12.70
2023-01-23T11:50:22.404Z,15.15
2023-01-23T11:53:01.484Z,15.35
2023-01-23T11:55:38.847Z,15.30
2023-01-23T11:58:09.744Z,12.57
2023-01-23T12:00:44.821Z,14.77
2023-01-23T12:03:32.727Z,15.38
2023-01-23T12:06:20.253Z,16.25
2023-01-23T12:09:18.564Z,16.45
2023-01-23T12:14:17.353Z,16.05
2023-01-23T12:16:55.759Z,15.05
2023-01-23T12:22:03.432Z,14.90
2023-01-23T12:24:44.673Z,16.33
2023-01-23T12:27:36.138Z,15.93
2023-01-23T12:30:33.971Z,15.98
2023-01-23T12:33:03.294Z,18.25
2023-01-23T12:35:58.142Z,18.35
2023-01-23T12:38:35.322Z,16.73
2023-01-23T12:41:18.636Z,16.10
2023-01-23T12:43:52.640Z,15.40
2023-01-23T12:46:37.596Z,17.08
2023-01-23T12:49:14.405Z,17.50
2023-01-23T12:51:44.256Z,16.17
2023-01-23T12:54:22.408Z,15.35
2023-01-23T12:59:35.743Z,17.67
2023-01-23T13:02:20.944Z,16.27
2023-01-23T13:05:21.564Z,17.70
2023-01-23T13:08:06.664Z,14.73
2023-01-23T13:11:20.304Z,15.20
2023-01-23T13:13:47.035Z,16.83
2023-01-23T13:16:16.068Z,15.20
2023-01-23T13:19:20.621Z,14.98
2023-01-23T13:22:28.667Z,14.77
2023-01-23T13:25:13.093Z,14.82
2023-01-23T13:27:52.271Z,17.20
2023-01-23T13:30:22.280Z,15.45
2023-01-23T13:32:51.529Z,17.17
2023-01-23T13:35:40.511Z,14.23
2023-01-23T13:38:22.192Z,14.63
2023-01-23T13:41:21.096Z,14.15
2023-01-23T13:43:50.415Z,14.45
2023-01-23T14:24:24.418Z,16.10
2023-01-23T14:27:02.503Z,17.17
2023-01-23T14:29:31.364Z,15.38
2023-01-23T14:31:58.043Z,15.63
2023-01-23T14:34:25.857Z,16.48
2023-01-23T14:36:58.338Z,16.13
2023-01-23T14:39:28.052Z,15.68
2023-01-23T14:41:58.001Z,17.10
2023-01-23T14:44:46.422Z,15.88
2023-01-23T14:47:45.453Z,16.87
2023-01-23T14:50:18.366Z,15.77
2023-01-23T14:52:45.072Z,18.50
2023-01-23T14:55:29.824Z,17.83
2023-01-23T14:57:59.029Z,17.55
2023-01-23T15:00:26.559Z,19.20
2023-01-23T15:02:54.564Z,20.20
2023-01-23T15:05:25.115Z,18.30
2023-01-23T15:08:10.581Z,17.67
2023-01-23T15:10:43.336Z,18.65
2023-01-23T15:13:29.183Z,18.98
2023-01-23T15:15:58.249Z,18.17
2023-01-23T15:18:28.213Z,18.27
2023-01-23T15:21:00.148Z,18.92
2023-01-23T15:23:35.062Z,18.00
2023-01-23T15:26:33.242Z,17.70
2023-01-23T15:31:36.258Z,16.90
2023-01-23T15:34:15.233Z,19.73
2023-01-23T15:36:57.121Z,17.83
2023-01-23T15:39:33.115Z,17.95
2023-01-23T15:42:21.057Z,17.70
2023-01-23T15:44:47.605Z,16.13
2023-01-23T15:47:14.499Z,17.70
2023-01-23T15:49:41.050Z,17.50
2023-01-23T15:52:21.549Z,18.13
2023-01-23T15:54:49.740Z,17.58
2023-01-23T15:57:16.419Z,15.60
2023-01-23T15:59:43.018Z,17.08
2023-01-23T16:02:39.370Z,16.38
2023-01-23T16:05:07.903Z,16.52
2023-01-23T16:07:36.427Z,18.10
2023-01-23T16:10:25.749Z,16.50
2023-01-23T16:12:54.345Z,16.25
2023-01-23T16:15:27.167Z,17.42
2023-01-23T16:17:54.019Z,16.35
2023-01-23T16:20:22.808Z,16.45
2023-01-23T16:22:52.321Z,17.52
2023-01-23T16:25:23.610Z,15.55
2023-01-23T16:27:55.411Z,16.88
2023-01-23T16:30:26.425Z,16.30
2023-01-23T16:32:54.004Z,16.05
2023-01-23T16:35:21.681Z,16.13
2023-01-23T16:37:50.692Z,15.68
2023-01-23T16:40:19.867Z,15.60
2023-01-23T16:42:48.161Z,15.18
2023-01-23T16:45:23.388Z,14.85
2023-01-23T16:47:50.426Z,15.90
2023-01-23T16:50:36.900Z,16.70
2023-01-23T16:53:10.637Z,15.35
2023-01-23T16:55:40.267Z,16.02
2023-01-23T16:58:07.869Z,17.80
2023-01-23T17:00:35.530Z,16.10
2023-01-23T17:03:05.194Z,16.35
2023-01-23T17:05:31.767Z,16.13
2023-01-23T17:07:58.353Z,17.42
2023-01-23T17:10:29.881Z,16.88
2023-01-23T17:13:01.373Z,16.27
2023-01-23T17:15:29.445Z,17.00
2023-01-23T17:17:58.500Z,17.55
2023-01-23T17:20:25.381Z,17.17
2023-01-23T17:22:51.960Z,18.23
2023-01-23T17:25:21.348Z,15.98
2023-01-23T17:27:59.999Z,16.27
2023-01-23T17:30:35.214Z,14.88
2023-01-23T17:33:01.800Z,14.82
2023-01-23T17:35:33.162Z,15.45
2023-01-23T17:38:00.507Z,16.58
2023-01-23T17:40:28.324Z,16.15
2023-01-23T17:42:55.292Z,17.50
2023-01-23T17:45:24.135Z,16.27
2023-01-23T17:47:53.527Z,14.27
2023-01-23T17:50:23.200Z,15.25
2023-01-23T17:52:50.960Z,15.60
2023-01-23T17:55:20.036Z,15.60
2023-01-23T17:57:46.768Z,15.20
2023-01-23T18:00:18.661Z,17.70
2023-01-23T18:02:53.315Z,15.90
2023-01-23T18:05:20.190Z,14.27
2023-01-23T18:07:53.895Z,15.05
2023-01-23T18:10:22.051Z,15.07
2023-01-23T18:13:07.026Z,15.02
2023-01-23T18:15:47.617Z,14.52
2023-01-23T18:18:29.432Z,14.38
2023-01-23T18:20:57.214Z,15.35
2023-01-23T18:23:25.501Z,14.95
2023-01-23T18:26:21.117Z,14.70
2023-01-23T18:29:21.400Z,13.38
2023-01-23T18:31:51.056Z,13.40
2023-01-23T18:34:35.910Z,14.15
2023-01-23T18:37:14.066Z,14.45
2023-01-23T18:40:25.507Z,13.77
2023-01-23T18:43:10.322Z,14.07
2023-01-23T18:45:37.269Z,13.02
2023-01-23T18:48:04.720Z,12.20
2023-01-23T18:50:35.878Z,12.82
2023-01-23T18:53:43.725Z,12.93
2023-01-23T18:58:43.932Z,14.70
2023-01-23T19:01:24.125Z,14.45
2023-01-23T19:03:51.256Z,15.50
2023-01-23T19:06:23.992Z,17.45
2023-01-23T19:08:52.122Z,16.73
2023-01-23T19:11:57.630Z,15.57
2023-01-23T19:15:01.725Z,15.30
2023-01-23T19:18:03.804Z,16.13
2023-01-23T19:20:44.336Z,17.85
2023-01-23T19:23:36.376Z,16.85
2023-01-23T19:26:03.270Z,18.90
2023-01-23T19:28:30.069Z,16.38
2023-01-23T19:30:56.895Z,16.30
2023-01-23T19:33:23.852Z,17.02
2023-01-23T19:35:51.404Z,17.00
2023-01-23T19:38:18.066Z,15.83
2023-01-23T19:40:45.331Z,17.67
2023-01-23T19:43:16.851Z,15.98
2023-01-23T19:45:44.811Z,17.52
2023-01-23T19:48:11.806Z,16.92
2023-01-23T19:50:38.828Z,17.77
2023-01-23T19:53:05.725Z,17.45
2023-01-23T19:55:34.493Z,20.48
2023-01-23T19:58:01.083Z,20.27
2023-01-23T20:00:29.851Z,17.17
2023-01-23T20:02:56.922Z,18.48
2023-01-23T20:05:24.026Z,19.65
2023-01-23T20:07:50.614Z,18.55
2023-01-23T20:10:17.752Z,17.63
2023-01-23T20:12:46.649Z,20.00
2023-01-23T20:15:14.721Z,17.75
2023-01-23T20:17:42.188Z,18.08
2023-01-23T20:20:11.347Z,17.00
2023-01-23T20:22:39.037Z,17.88
2023-01-23T20:25:12.876Z,15.70
2023-01-23T20:27:40.108Z,16.70
2023-01-23T20:30:12.016Z,18.52
2023-01-23T20:32:38.613Z,15.52
2023-01-23T20:35:05.543Z,16.92
2023-01-23T20:37:32.119Z,15.10
2023-01-23T20:39:58.843Z,16.08
2023-01-23T20:42:25.445Z,16.35
2023-01-23T20:44:52.063Z,13.82
2023-01-23T20:47:18.659Z,15.52
2023-01-23T20:49:45.217Z,16.17
2023-01-23T20:52:30.325Z,15.02
2023-01-23T20:54:56.892Z,16.05
2023-01-23T20:57:23.524Z,16.65
2023-01-23T20:59:50.086Z,14.70
2023-01-23T21:02:27.065Z,16.17
2023-01-23T21:04:53.818Z,15.02
2023-01-23T21:07:21.765Z,15.45
2023-01-23T21:09:48.459Z,14.20
2023-01-23T21:12:15.411Z,14.35
2023-01-23T21:14:41.965Z,14.95
2023-01-23T21:17:09.682Z,14.43
2023-01-23T21:19:37.991Z,14.63
2023-01-23T21:22:06.142Z,14.57
2023-01-23T21:24:36.801Z,15.00
2023-01-23T21:27:06.937Z,14.75
2023-01-23T21:29:33.690Z,13.57
2023-01-23T21:32:00.381Z,14.02
2023-01-23T21:34:27.132Z,13.75
2023-01-23T21:36:53.757Z,13.57
2023-01-23T21:39:20.660Z,13.65
2023-01-23T21:41:47.263Z,13.82
2023-01-23T21:44:13.941Z,12.73
2023-01-23T21:46:40.769Z,15.40
2023-01-23T21:49:07.552Z,13.60
2023-01-23T21:51:34.209Z,13.50
2023-01-23T21:54:00.827Z,14.30
2023-01-23T21:56:27.493Z,13.57
2023-01-23T21:58:55.309Z,14.27
2023-01-23T22:01:33.875Z,14.05
2023-01-23T22:04:05.446Z,12.90
2023-01-23T22:06:33.484Z,13.27
2023-01-23T22:09:00.158Z,13.13
2023-01-23T22:11:26.991Z,13.68
2023-01-23T22:13:54.124Z,12.70
2023-01-23T22:16:22.869Z,13.98
2023-01-23T22:18:55.070Z,13.73
2023-01-23T22:21:21.651Z,12.77
2023-01-23T22:23:48.286Z,13.50
2023-01-23T22:26:14.887Z,12.90
2023-01-23T22:28:41.771Z,12.38
2023-01-23T22:31:11.083Z,13.00
2023-01-23T22:33:43.008Z,13.20
2023-01-23T22:36:13.003Z,13.00
2023-01-23T22:38:39.592Z,13.43
2023-01-23T22:41:06.707Z,13.38
2023-01-23T22:43:34.406Z,12.90
2023-01-23T22:46:13.119Z,13.00
2023-01-23T22:48:39.998Z,13.73
2023-01-23T22:51:09.780Z,15.77
2023-01-23T22:53:36.338Z,13.70
2023-01-23T22:56:06.274Z,15.85
2023-01-23T22:58:35.891Z,15.68
2023-01-23T23:01:02.577Z,13.90
2023-01-23T23:03:33.502Z,14.93
2023-01-23T23:06:08.223Z,14.57
2023-01-23T23:08:35.322Z,15.32
2023-01-23T23:11:07.304Z,15.75
2023-01-23T23:13:36.359Z,17.17
2023-01-23T23:16:08.279Z,19.42
2023-01-23T23:18:37.437Z,18.67
2023-01-23T23:21:07.791Z,17.98
2023-01-23T23:23:34.738Z,18.50
2023-01-23T23:26:01.379Z,17.63
2023-01-23T23:28:28.295Z,19.67
2023-01-23T23:30:54.908Z,18.33
2023-01-23T23:33:21.629Z,19.55
2023-01-23T23:35:48.304Z,19.45
2023-01-23T23:38:15.445Z,18.48
2023-01-23T23:40:42.305Z,17.90
2023-01-23T23:43:09.384Z,19.55
2023-01-23T23:45:36.003Z,18.35
2023-01-23T23:48:02.710Z,18.00
2023-01-23T23:50:29.741Z,16.25
2023-01-23T23:52:56.323Z,17.48
2023-01-23T23:55:23.374Z,17.02
2023-01-23T23:57:50.134Z,14.88
